International Virtual Aviation Organisation

Russian Federation and Kazakhstan MCD

 

Карточка аэропорта USCC

Внимание!
Информация на этой странице в стадии наполнения.
Если вы не увидели какой-то информации, или заметили неточность - пожалуйста сообщите нам!
Спасибо!
Команда RU-STAFF
Название аэропортаБаландино
Название аэропорта (англ.)Balandino
Превышение769 ft. (234.4 m.)
Координаты55°18.348', 61°30.198'
Высота перехода1500m (5700ft)
Эшелон переходаFL080
Коды ответчика5560-5563
Зона ОрВДЕкатеринбург РПИ (USSS)
Данные METARUSCC 242300Z 07001MPS 2300 R09/P2000N BR FU NSC M05/M05 Q1017 R09/000060 TEMPO 1200 BR FU VV005 RMK QFE742
Проноз погоды (TAF)USCC 242135Z 2421/2521 14003G08MPS 3100 BR FU VV011 TEMPO 2421/2505 22003MPS 0400 FZFG FM250500 16003G08MPS 5000 BR FU BKN015 TEMPO 2505/2521 16008G15MPS 3100 -SNRA BKN011
NOTAMshow/hide NOTAM
AWOS   TABLE

Информация о ВПП


Диспетчерские позиции

Позывной Наименование органа УВД Частота
USCC_APPЧелябинск-Подход124.7
USCC_TWRЧелябинск-Старт125.2



Спутниковое изображение